Time;durP1;ratioP1;P1;durP2;ratioP2;P2;SDS_P1;SDS_P2;PMS_P1;PMS_P2;Temp;Humidity;BMP_temperature;BMP_pressure;BME280_temperature;BME280_humidity;BME280_pressure;Samples;Min_cycle;Max_cycle;Signal;HPM_P1;HPM_P2
2023/04/12 00:00:20;;;;;;;51.50;27.65;;;;;;;-144.57;100.00;62443.72;5071202;28;20061;-62
2023/04/12 00:02:45;;;;;;;53.63;28.58;;;;;;;-144.57;100.00;62443.72;5069672;28;20047;-63
2023/04/12 00:05:12;;;;;;;57.08;29.25;;;;;;;-144.57;100.00;62443.72;5069441;28;20089;-62
2023/04/12 00:07:38;;;;;;;54.95;28.83;;;;;;;-144.57;100.00;62443.72;5071278;28;20075;-63
2023/04/12 00:10:08;;;;;;;55.80;29.75;;;;;;;-144.57;100.00;62443.72;5069321;28;20048;-62
2023/04/12 00:12:34;;;;;;;57.40;30.30;;;;;;;-144.57;100.00;62443.72;5070918;28;20414;-62
2023/04/12 00:15:00;;;;;;;52.50;27.45;;;;;;;-144.57;100.00;62443.72;5069746;28;20048;-63
2023/04/12 00:17:26;;;;;;;48.35;27.80;;;;;;;-144.57;100.00;62443.72;5070974;28;20478;-64
2023/04/12 00:19:52;;;;;;;58.85;27.15;;;;;;;-144.57;100.00;62443.72;5071073;28;20055;-62
2023/04/12 00:22:17;;;;;;;53.63;28.00;;;;;;;-144.57;100.00;62443.72;5069429;28;20044;-64
2023/04/12 00:24:43;;;;;;;55.75;28.42;;;;;;;-144.57;100.00;62443.72;5071077;28;20483;-63
2023/04/12 00:27:09;;;;;;;51.28;26.88;;;;;;;-144.57;100.00;62443.72;5070453;28;20048;-65
2023/04/12 00:29:35;;;;;;;50.70;25.85;;;;;;;-144.57;100.00;62443.72;5069524;28;20083;-63
2023/04/12 00:32:02;;;;;;;55.67;26.58;;;;;;;-144.57;100.00;62443.72;5069210;28;20072;-62
2023/04/12 00:34:29;;;;;;;53.83;27.27;;;;;;;-144.57;100.00;62443.72;5068456;28;20131;-62
2023/04/12 00:36:55;;;;;;;45.53;26.20;;;;;;;-144.57;100.00;62443.72;5054613;28;20165;-64
2023/04/12 00:39:21;;;;;;;56.05;25.73;;;;;;;-144.57;100.00;62443.72;5074674;28;20127;-63
2023/04/12 00:41:48;;;;;;;51.05;25.67;;;;;;;-144.57;100.00;62443.72;5074323;28;20040;-64
2023/04/12 00:44:16;;;;;;;44.97;25.30;;;;;;;-144.57;100.00;62443.72;5073374;28;20045;-63
2023/04/12 00:46:43;;;;;;;46.58;25.70;;;;;;;-144.57;100.00;62443.72;5072830;28;20444;-63
2023/04/12 00:49:11;;;;;;;46.13;25.45;;;;;;;-144.57;100.00;62443.72;5056421;28;20044;-62
2023/04/12 00:51:38;;;;;;;50.30;26.60;;;;;;;-144.57;100.00;62443.72;5053112;28;20584;-63
2023/04/12 00:54:05;;;;;;;50.25;25.92;;;;;;;-144.57;100.00;62443.72;5054107;28;20049;-62
2023/04/12 00:56:31;;;;;;;49.13;27.83;;;;;;;-144.57;100.00;62443.72;5066007;28;20080;-63
2023/04/12 00:58:57;;;;;;;50.75;26.83;;;;;;;-144.57;100.00;62443.72;5073008;28;20521;-63
2023/04/12 01:01:23;;;;;;;46.25;26.73;;;;;;;-144.57;100.00;62443.72;5072369;28;20044;-63
2023/04/12 01:03:50;;;;;;;45.88;25.77;;;;;;;-144.57;100.00;62443.72;5072568;28;20044;-63
2023/04/12 01:06:28;;;;;;;49.90;25.67;;;;;;;-144.57;100.00;62443.72;5063391;28;20033;-63
2023/04/12 01:09:22;;;;;;;52.40;25.30;;;;;;;-144.57;100.00;62443.72;5052950;28;20045;-63
2023/04/12 01:11:57;;;;;;;36.90;23.77;;;;;;;-144.57;100.00;62443.72;5041860;28;20502;-63
2023/04/12 01:14:54;;;;;;;46.85;24.45;;;;;;;-144.57;100.00;62443.72;5052588;28;20049;-62
2023/04/12 01:17:26;;;;;;;45.47;24.10;;;;;;;-144.57;100.00;62443.72;5060074;28;20062;-64
2023/04/12 01:19:57;;;;;;;49.90;23.35;;;;;;;-144.57;100.00;62443.72;5072565;28;20414;-64
2023/04/12 01:22:52;;;;;;;39.83;23.38;;;;;;;-144.57;100.00;62443.72;5073741;28;20040;-64
2023/04/12 01:25:26;;;;;;;40.80;22.95;;;;;;;-144.57;100.00;62443.72;5071161;28;20067;-65
2023/04/12 01:27:58;;;;;;;42.67;24.05;;;;;;;-144.57;100.00;62443.72;5072771;28;20516;-64
2023/04/12 01:30:27;;;;;;;42.58;24.45;;;;;;;-144.57;100.00;62443.72;5071365;28;20404;-64
2023/04/12 01:32:54;;;;;;;42.10;24.77;;;;;;;-144.57;100.00;62443.72;5072309;28;20032;-64
2023/04/12 01:35:22;;;;;;;41.15;23.38;;;;;;;-144.57;100.00;62443.72;5073611;28;21595;-63
2023/04/12 01:37:48;;;;;;;40.88;23.95;;;;;;;-144.57;100.00;62443.72;5055423;28;20044;-62
2023/04/12 01:40:17;;;;;;;43.95;23.80;;;;;;;-144.57;100.00;62443.72;5054725;28;20502;-64
2023/04/12 01:42:44;;;;;;;44.40;23.52;;;;;;;-144.57;100.00;62443.72;5073432;28;20119;-63
2023/04/12 01:45:10;;;;;;;39.17;23.40;;;;;;;-144.57;100.00;62443.72;5072337;28;20417;-62
2023/04/12 01:47:36;;;;;;;43.78;23.50;;;;;;;-144.57;100.00;62443.72;5072656;28;20040;-63
2023/04/12 01:50:20;;;;;;;43.30;24.92;;;;;;;-144.57;100.00;62443.72;5071984;28;20437;-63
2023/04/12 01:52:53;;;;;;;40.22;24.25;;;;;;;-144.57;100.00;62443.72;5071842;28;20065;-62
2023/04/12 01:55:21;;;;;;;44.08;26.35;;;;;;;-144.57;100.00;62443.72;5055151;28;20480;-63
2023/04/12 01:57:48;;;;;;;51.10;25.85;;;;;;;-144.57;100.00;62443.72;5071523;28;20055;-63
2023/04/12 02:00:15;;;;;;;44.22;24.60;;;;;;;-144.57;100.00;62443.72;5038743;28;20049;-64
2023/04/12 02:02:42;;;;;;;48.42;24.52;;;;;;;-144.57;100.00;62443.72;5072879;28;20414;-62
2023/04/12 02:05:08;;;;;;;51.60;25.85;;;;;;;-144.57;100.00;62443.72;5038438;28;20051;-63
2023/04/12 02:07:34;;;;;;;55.15;26.83;;;;;;;-144.57;100.00;62443.72;5072588;28;20086;-65
2023/04/12 02:10:00;;;;;;;46.75;27.08;;;;;;;-144.57;100.00;62443.72;5071636;28;20165;-63
2023/04/12 02:12:26;;;;;;;51.83;25.88;;;;;;;-144.57;100.00;62443.72;5055273;28;20498;-64
2023/04/12 02:14:52;;;;;;;40.90;24.88;;;;;;;-144.57;100.00;62443.72;5051499;28;20071;-63
2023/04/12 02:17:18;;;;;;;45.35;26.30;;;;;;;-144.57;100.00;62443.72;5051196;28;20482;-63
2023/04/12 02:19:46;;;;;;;51.80;25.88;;;;;;;-144.57;100.00;62443.72;5035221;28;20059;-64
2023/04/12 02:22:13;;;;;;;42.75;25.63;;;;;;;-144.57;100.00;62443.72;5051173;28;20040;-61
2023/04/12 02:24:38;;;;;;;44.58;25.80;;;;;;;-144.57;100.00;62443.72;5034696;28;20098;-64
2023/04/12 02:27:04;;;;;;;52.55;26.92;;;;;;;-144.57;100.00;62443.72;5052155;28;20102;-63
2023/04/12 02:29:30;;;;;;;46.65;26.80;;;;;;;-144.57;100.00;62443.72;5052611;28;20049;-64
2023/04/12 02:31:56;;;;;;;57.78;27.00;;;;;;;-144.57;100.00;62443.72;5051903;28;20052;-64
2023/04/12 02:34:24;;;;;;;53.92;28.38;;;;;;;-144.57;100.00;62443.72;5034904;28;20048;-63
2023/04/12 02:36:57;;;;;;;66.78;31.55;;;;;;;-144.57;100.00;62443.72;5050784;28;20091;-64
2023/04/12 02:39:23;;;;;;;59.65;31.52;;;;;;;-144.57;100.00;62443.72;5050964;28;20065;-63
2023/04/12 02:41:51;;;;;;;54.30;31.98;;;;;;;-144.57;100.00;62443.72;5042974;28;20076;-63
2023/04/12 02:44:16;;;;;;;64.55;30.42;;;;;;;-144.57;100.00;62443.72;5017123;28;20072;-64
2023/04/12 02:46:50;;;;;;;73.10;33.53;;;;;;;-144.57;100.00;62443.72;5045665;28;20446;-64
2023/04/12 02:49:16;;;;;;;54.13;32.60;;;;;;;-144.57;100.00;62443.72;5071056;28;20045;-63
2023/04/12 02:51:41;;;;;;;67.25;32.67;;;;;;;-144.57;100.00;62443.72;5070146;28;20040;-64
2023/04/12 02:54:07;;;;;;;66.95;33.50;;;;;;;-144.57;100.00;62443.72;5070545;28;20052;-63
2023/04/12 02:56:48;;;;;;;60.50;31.30;;;;;;;-144.57;100.00;62443.72;5058756;28;20033;-64
2023/04/12 02:59:32;;;;;;;53.50;27.80;;;;;;;-144.57;100.00;62443.72;5051173;28;20060;-65
2023/04/12 03:02:07;;;;;;;51.42;29.70;;;;;;;-144.57;100.00;62443.72;5050400;28;20049;-63
2023/04/12 03:04:36;;;;;;;67.40;32.47;;;;;;;-144.57;100.00;62443.72;5050526;28;20041;-62
2023/04/12 03:07:02;;;;;;;62.35;30.80;;;;;;;-144.57;100.00;62443.72;5065108;28;20120;-63
2023/04/12 03:09:51;;;;;;;45.08;27.00;;;;;;;-144.57;100.00;62443.72;5068589;28;20059;-63
2023/04/12 03:12:19;;;;;;;46.60;27.33;;;;;;;-144.57;100.00;62443.72;5070181;28;20041;-63
2023/04/12 03:14:55;;;;;;;53.88;27.55;;;;;;;-144.57;100.00;62443.72;5071582;28;20135;-64
2023/04/12 03:17:24;;;;;;;58.90;29.65;;;;;;;-144.57;100.00;62443.72;5049549;28;20430;-63
2023/04/12 03:19:51;;;;;;;60.28;30.40;;;;;;;-144.57;100.00;62443.72;5051602;28;20049;-63
2023/04/12 03:22:19;;;;;;;53.20;29.90;;;;;;;-144.57;100.00;62443.72;5070127;28;20131;-63
2023/04/12 03:24:50;;;;;;;69.38;36.15;;;;;;;-144.57;100.00;62443.72;5070203;28;20043;-64
2023/04/12 03:27:19;;;;;;;63.90;33.70;;;;;;;-144.57;100.00;62443.72;5070143;28;20046;-64
2023/04/12 03:29:45;;;;;;;70.88;35.08;;;;;;;-144.57;100.00;62443.72;5070027;28;20131;-64
2023/04/12 03:32:11;;;;;;;73.80;35.95;;;;;;;-144.57;100.00;62443.72;5069857;28;20033;-62
2023/04/12 03:34:37;;;;;;;66.70;34.72;;;;;;;-144.57;100.00;62443.72;5069885;28;20055;-63
2023/04/12 03:37:10;;;;;;;79.10;36.38;;;;;;;-144.57;100.00;62443.72;5069551;28;20044;-64
2023/04/12 03:39:39;;;;;;;64.30;35.63;;;;;;;-144.57;100.00;62443.72;5053862;28;20131;-62
2023/04/12 03:42:08;;;;;;;61.47;32.08;;;;;;;-144.57;100.00;62443.72;5071217;28;20114;-63
2023/04/12 03:44:33;;;;;;;55.42;30.08;;;;;;;-144.57;100.00;62443.72;5053210;28;20045;-63
2023/04/12 03:47:05;;;;;;;61.17;30.83;;;;;;;-144.57;100.00;62443.72;5069684;28;20040;-63
2023/04/12 03:49:37;;;;;;;60.22;30.85;;;;;;;-144.57;100.00;62443.72;5069694;28;20041;-61
2023/04/12 03:52:16;;;;;;;55.33;30.25;;;;;;;-144.57;100.00;62443.72;5070933;28;20182;-64
2023/04/12 03:54:44;;;;;;;64.28;29.67;;;;;;;-144.57;100.00;62443.72;5052928;28;20059;-63
2023/04/12 03:57:13;;;;;;;63.03;29.60;;;;;;;-144.57;100.00;62443.72;5069558;28;20044;-62
2023/04/12 03:59:46;;;;;;;62.25;28.35;;;;;;;-144.57;100.00;62443.72;5069286;28;20090;-64
2023/04/12 04:02:13;;;;;;;56.33;27.70;;;;;;;-144.57;100.00;62443.72;5069542;28;20048;-65
2023/04/12 04:04:44;;;;;;;51.72;28.60;;;;;;;-144.57;100.00;62443.72;5071046;28;20499;-64
2023/04/12 04:07:13;;;;;;;53.78;28.67;;;;;;;-144.57;100.00;62443.72;5049286;28;20086;-62
2023/04/12 04:09:43;;;;;;;57.50;30.90;;;;;;;-144.57;100.00;62443.72;5032686;28;20049;-64
2023/04/12 04:12:10;;;;;;;58.60;30.70;;;;;;;-144.57;100.00;62443.72;5058612;28;20543;-64
2023/04/12 04:14:40;;;;;;;53.30;29.48;;;;;;;-144.57;100.00;62443.72;5073666;28;20102;-64
2023/04/12 04:17:09;;;;;;;60.90;30.58;;;;;;;-144.57;100.00;62443.72;5072523;28;20040;-64
2023/04/12 04:19:35;;;;;;;55.25;30.05;;;;;;;-144.57;100.00;62443.72;5073277;28;20406;-63
2023/04/12 04:22:01;;;;;;;56.65;29.85;;;;;;;-144.57;100.00;62443.72;5074300;28;20040;-64
2023/04/12 04:24:27;;;;;;;64.70;31.63;;;;;;;-144.57;100.00;62443.72;5073504;28;20551;-63
2023/04/12 04:26:58;;;;;;;59.75;32.40;;;;;;;-144.57;100.00;62443.72;5073025;28;20040;-63
2023/04/12 04:29:28;;;;;;;57.53;30.83;;;;;;;-144.57;100.00;62443.72;5073203;28;20056;-63
2023/04/12 04:31:54;;;;;;;49.38;30.73;;;;;;;-144.57;100.00;62443.72;5072938;28;20040;-64
2023/04/12 04:34:22;;;;;;;59.92;31.45;;;;;;;-144.57;100.00;62443.72;5056648;28;20041;-65
2023/04/12 04:36:50;;;;;;;60.83;31.60;;;;;;;-144.57;100.00;62443.72;5072895;28;20052;-64
2023/04/12 04:39:22;;;;;;;58.08;31.75;;;;;;;-144.57;100.00;62443.72;5073003;28;20517;-66
2023/04/12 04:41:53;;;;;;;53.67;32.47;;;;;;;-144.57;100.00;62443.72;5072871;28;20040;-63
2023/04/12 04:45:01;;;;;;;57.15;30.60;;;;;;;-144.57;100.00;62443.72;5061448;28;20135;-64
2023/04/12 04:47:29;;;;;;;57.70;32.38;;;;;;;-144.57;100.00;62443.72;5072623;28;20043;-64
2023/04/12 04:49:56;;;;;;;61.95;35.05;;;;;;;-144.57;100.00;62443.72;5072981;28;20052;-62
2023/04/12 04:52:25;;;;;;;59.10;33.03;;;;;;;-144.57;100.00;62443.72;5072827;28;20473;-65
2023/04/12 04:54:56;;;;;;;65.57;33.13;;;;;;;-144.57;100.00;62443.72;5072401;28;20057;-63
2023/04/12 04:57:25;;;;;;;66.07;34.83;;;;;;;-144.57;100.00;62443.72;5052787;28;20096;-65
2023/04/12 04:59:53;;;;;;;70.88;34.88;;;;;;;-144.57;100.00;62443.72;5036642;28;20608;-65
2023/04/12 05:02:20;;;;;;;61.72;31.35;;;;;;;-144.57;100.00;62443.72;5072679;28;20060;-64
2023/04/12 05:04:46;;;;;;;75.72;38.10;;;;;;;-144.57;100.00;62443.72;5072538;28;20140;-65
2023/04/12 05:07:15;;;;;;;68.35;37.10;;;;;;;-144.57;100.00;62443.72;5072402;28;20036;-65
2023/04/12 05:09:44;;;;;;;76.63;34.17;;;;;;;-144.57;100.00;62443.72;5072437;28;20098;-65
2023/04/12 05:12:10;;;;;;;74.85;34.40;;;;;;;-144.57;100.00;62443.72;5056208;28;20040;-65
2023/04/12 05:14:37;;;;;;;70.53;35.17;;;;;;;-144.57;100.00;62443.72;5055989;28;20040;-70
2023/04/12 05:17:03;;;;;;;66.30;32.28;;;;;;;-144.57;100.00;62443.72;5054618;28;20502;-63
2023/04/12 05:19:29;;;;;;;73.82;34.05;;;;;;;-144.57;100.00;62443.72;5072435;28;20044;-65
2023/04/12 05:21:55;;;;;;;86.82;35.17;;;;;;;-144.57;100.00;62443.72;5071817;28;20120;-65
2023/04/12 05:24:20;;;;;;;70.90;34.60;;;;;;;-144.57;100.00;62443.72;5068402;28;20052;-67
2023/04/12 05:26:46;;;;;;;68.55;34.50;;;;;;;-144.57;100.00;62443.72;5070931;28;20644;-65
2023/04/12 05:29:13;;;;;;;71.47;35.28;;;;;;;-144.57;100.00;62443.72;5071917;28;20044;-63
2023/04/12 05:31:39;;;;;;;68.95;34.33;;;;;;;-144.57;100.00;62443.72;5055482;28;20406;-64
2023/04/12 05:34:10;;;;;;;73.25;35.22;;;;;;;-144.57;100.00;62443.72;5070531;28;20501;-63
2023/04/12 05:36:42;;;;;;;70.55;34.33;;;;;;;-144.57;100.00;62443.72;5036837;28;20032;-65
2023/04/12 05:39:08;;;;;;;79.55;44.45;;;;;;;-144.57;100.00;62443.72;5070574;28;20233;-64
2023/04/12 05:41:34;;;;;;;66.78;34.35;;;;;;;-144.57;100.00;62443.72;5071677;28;20040;-64
2023/04/12 05:44:02;;;;;;;65.20;33.67;;;;;;;-144.57;100.00;62443.72;5070643;28;20106;-62
2023/04/12 05:46:28;;;;;;;61.45;32.17;;;;;;;-144.57;100.00;62443.72;5073386;28;20040;-63
2023/04/12 05:48:55;;;;;;;65.55;30.95;;;;;;;-144.57;100.00;62443.72;5071686;28;20041;-62
2023/04/12 05:51:20;;;;;;;58.42;29.70;;;;;;;-144.57;100.00;62443.72;5038612;28;20049;-63
2023/04/12 05:53:46;;;;;;;60.47;27.30;;;;;;;-144.57;100.00;62443.72;5071505;28;20498;-64
2023/04/12 05:56:13;;;;;;;51.22;25.45;;;;;;;-144.57;100.00;62443.72;5072973;28;20057;-65
2023/04/12 05:58:41;;;;;;;46.35;24.60;;;;;;;-144.57;100.00;62443.72;5071553;28;20127;-65
2023/04/12 06:01:07;;;;;;;55.05;24.35;;;;;;;-144.57;100.00;62443.72;5071680;28;20132;-65
2023/04/12 06:03:33;;;;;;;43.70;22.40;;;;;;;-144.57;100.00;62443.72;5070086;28;20628;-63
2023/04/12 06:06:06;;;;;;;40.17;20.90;;;;;;;-144.57;100.00;62443.72;5054379;28;20252;-63
2023/04/12 06:08:33;;;;;;;34.53;19.17;;;;;;;-144.57;100.00;62443.72;5050032;28;20640;-65
2023/04/12 06:11:00;;;;;;;33.28;19.63;;;;;;;-144.57;100.00;62443.72;5050284;28;20131;-64
2023/04/12 06:13:26;;;;;;;33.25;18.30;;;;;;;-144.57;100.00;62443.72;5045449;28;20036;-64
2023/04/12 06:15:53;;;;;;;32.90;17.90;;;;;;;-144.57;100.00;62443.72;5020483;28;20110;-64
2023/04/12 06:18:19;;;;;;;28.98;16.58;;;;;;;-144.57;100.00;62443.72;5068749;28;20537;-64
2023/04/12 06:20:45;;;;;;;35.03;18.13;;;;;;;-144.57;100.00;62443.72;5072030;28;20110;-63
2023/04/12 06:23:11;;;;;;;26.00;16.70;;;;;;;-144.57;100.00;62443.72;5058575;28;20040;-65
2023/04/12 06:25:37;;;;;;;24.83;15.07;;;;;;;-144.57;100.00;62443.72;5050427;28;20159;-63
2023/04/12 06:28:04;;;;;;;28.60;16.67;;;;;;;-144.57;100.00;62443.72;5049891;28;20449;-61
2023/04/12 06:30:32;;;;;;;24.92;14.93;;;;;;;-144.57;100.00;62443.72;5054707;28;20048;-63
2023/04/12 06:32:58;;;;;;;25.13;15.15;;;;;;;-144.57;100.00;62443.72;5053032;28;20545;-62
2023/04/12 06:35:23;;;;;;;24.02;16.00;;;;;;;-144.57;100.00;62443.72;5070246;28;20094;-64
2023/04/12 06:37:49;;;;;;;27.23;16.55;;;;;;;-144.57;100.00;62443.72;5052435;28;20506;-64
2023/04/12 06:40:15;;;;;;;31.58;16.40;;;;;;;-144.57;100.00;62443.72;5070910;28;20139;-62
2023/04/12 06:42:41;;;;;;;25.73;16.30;;;;;;;-144.57;100.00;62443.72;5069965;28;20093;-66
2023/04/12 06:45:09;;;;;;;32.95;17.38;;;;;;;-144.57;100.00;62443.72;5053513;28;20040;-64
2023/04/12 06:47:34;;;;;;;34.95;17.60;;;;;;;-144.57;100.00;62443.72;5071611;28;20036;-64
2023/04/12 06:50:00;;;;;;;32.10;17.92;;;;;;;-144.57;100.00;62443.72;5071103;28;20106;-64
2023/04/12 06:52:27;;;;;;;32.80;18.10;;;;;;;-144.57;100.00;62443.72;5070841;28;20083;-66
2023/04/12 06:54:55;;;;;;;32.10;17.58;;;;;;;-144.57;100.00;62443.72;5067562;28;20063;-62
2023/04/12 06:57:20;;;;;;;30.13;16.55;;;;;;;-144.57;100.00;62443.72;5069135;28;20080;-62
2023/04/12 06:59:46;;;;;;;33.38;17.42;;;;;;;-144.57;100.00;62443.72;5069949;28;20423;-63
2023/04/12 07:02:12;;;;;;;26.92;16.52;;;;;;;-144.57;100.00;62443.72;5053271;28;20146;-62
2023/04/12 07:04:37;;;;;;;36.45;19.58;;;;;;;-144.57;100.00;62443.72;5069795;28;20132;-63
2023/04/12 07:07:03;;;;;;;35.58;18.65;;;;;;;-144.57;100.00;62443.72;5069833;28;20498;-64
2023/04/12 07:09:32;;;;;;;32.80;17.88;;;;;;;-144.57;100.00;62443.72;5070638;28;20048;-63
2023/04/12 07:11:59;;;;;;;29.40;16.45;;;;;;;-144.57;100.00;62443.72;5069731;28;20059;-65
2023/04/12 07:14:25;;;;;;;27.25;16.60;;;;;;;-144.57;100.00;62443.72;5069523;28;20051;-63
2023/04/12 07:16:50;;;;;;;39.97;18.20;;;;;;;-144.57;100.00;62443.72;5070967;28;20040;-64
2023/04/12 07:19:16;;;;;;;31.40;17.70;;;;;;;-144.57;100.00;62443.72;5068726;28;20505;-64
2023/04/12 07:21:42;;;;;;;37.65;18.17;;;;;;;-144.57;100.00;62443.72;5069936;28;20087;-64
2023/04/12 07:24:07;;;;;;;34.08;18.10;;;;;;;-144.57;100.00;62443.72;5068981;28;20046;-63
2023/04/12 07:26:33;;;;;;;34.60;17.42;;;;;;;-144.57;100.00;62443.72;5070014;28;20513;-63
2023/04/12 07:28:59;;;;;;;33.78;17.95;;;;;;;-144.57;100.00;62443.72;5070789;28;20425;-64
2023/04/12 07:31:24;;;;;;;30.33;18.10;;;;;;;-144.57;100.00;62443.72;5069296;28;20044;-63
2023/04/12 07:33:50;;;;;;;26.98;16.50;;;;;;;-144.57;100.00;62443.72;5070467;28;20041;-65
2023/04/12 07:36:19;;;;;;;27.23;17.42;;;;;;;-144.57;100.00;62443.72;5070797;28;20063;-65
2023/04/12 07:38:45;;;;;;;31.27;17.10;;;;;;;-144.57;100.00;62443.72;5070700;28;20162;-74
2023/04/12 07:41:11;;;;;;;24.63;16.40;;;;;;;-144.57;100.00;62443.72;5068269;28;20550;-63
2023/04/12 07:43:37;;;;;;;26.77;17.20;;;;;;;-144.57;100.00;62443.72;5066380;28;20064;-65
2023/04/12 07:46:06;;;;;;;31.08;18.42;;;;;;;-144.57;100.00;62443.72;5066724;28;20048;-64
2023/04/12 07:48:32;;;;;;;34.17;18.75;;;;;;;-144.57;100.00;62443.72;5069323;28;20036;-66
2023/04/12 07:50:57;;;;;;;45.20;19.58;;;;;;;-144.57;100.00;62443.72;5068658;28;20135;-64
2023/04/12 07:53:26;;;;;;;31.15;19.42;;;;;;;-144.57;100.00;62443.72;5068033;28;20044;-66
2023/04/12 07:55:52;;;;;;;33.53;19.63;;;;;;;-144.57;100.00;62443.72;5066982;28;20510;-64
2023/04/12 07:58:19;;;;;;;33.65;19.85;;;;;;;-144.57;100.00;62443.72;5052040;28;20564;-66
2023/04/12 08:00:45;;;;;;;38.13;19.45;;;;;;;-144.57;100.00;62443.72;5070728;28;20048;-65
2023/04/12 08:03:12;;;;;;;36.35;20.48;;;;;;;-144.57;100.00;62443.72;5070376;28;20094;-70
2023/04/12 08:05:38;;;;;;;41.22;20.35;;;;;;;-144.57;100.00;62443.72;5070658;28;20080;-64
2023/04/12 08:08:04;;;;;;;30.75;19.40;;;;;;;-144.57;100.00;62443.72;5070131;28;20106;-68
2023/04/12 08:10:30;;;;;;;28.95;19.02;;;;;;;-144.57;100.00;62443.72;5069359;28;20048;-67
2023/04/12 08:12:56;;;;;;;30.23;18.83;;;;;;;-144.57;100.00;62443.72;5070537;28;20526;-64
2023/04/12 08:15:22;;;;;;;27.55;17.67;;;;;;;-144.57;100.00;62443.72;5070000;28;20461;-69
2023/04/12 08:17:48;;;;;;;30.95;17.88;;;;;;;-144.57;100.00;62443.72;5049132;28;20045;-65
2023/04/12 08:20:14;;;;;;;34.83;17.58;;;;;;;-144.57;100.00;62443.72;5049866;28;20045;-65
2023/04/12 08:22:44;;;;;;;27.10;17.55;;;;;;;-144.57;100.00;62443.72;5057252;28;20036;-66
2023/04/12 08:25:10;;;;;;;34.85;18.20;;;;;;;-144.57;100.00;62443.72;5069473;28;20117;-67
2023/04/12 08:27:37;;;;;;;30.77;18.00;;;;;;;-144.57;100.00;62443.72;5069147;28;20486;-63
2023/04/12 08:30:03;;;;;;;33.75;18.42;;;;;;;-144.57;100.00;62443.72;5052439;28;20040;-65
2023/04/12 08:32:29;;;;;;;26.27;16.58;;;;;;;-144.57;100.00;62443.72;5070323;28;20041;-66
2023/04/12 08:34:55;;;;;;;30.25;16.80;;;;;;;-144.57;100.00;62443.72;5070881;28;20051;-64
2023/04/12 08:37:21;;;;;;;34.45;14.52;;;;;;;-144.57;100.00;62443.72;5068669;28;20117;-64
2023/04/12 08:39:46;;;;;;;31.33;14.32;;;;;;;-144.57;100.00;62443.72;5070490;28;20051;-63
2023/04/12 08:42:15;;;;;;;19.33;12.05;;;;;;;-144.57;100.00;62443.72;5052582;28;20086;-66
2023/04/12 08:44:40;;;;;;;17.63;10.55;;;;;;;-144.57;100.00;62443.72;5070278;28;20058;-64
2023/04/12 08:47:08;;;;;;;17.50;10.55;;;;;;;-144.57;100.00;62443.72;5065829;28;20126;-63
2023/04/12 08:49:34;;;;;;;19.15;10.98;;;;;;;-144.57;100.00;62443.72;5031166;28;20044;-64
2023/04/12 08:52:05;;;;;;;19.08;11.75;;;;;;;-144.57;100.00;62443.72;5048965;28;20419;-65
2023/04/12 08:54:32;;;;;;;17.30;12.13;;;;;;;-144.57;100.00;62443.72;5049964;28;20067;-65
2023/04/12 08:57:00;;;;;;;20.98;13.63;;;;;;;-144.57;100.00;62443.72;5049476;28;20055;-64
2023/04/12 08:59:26;;;;;;;23.35;13.95;;;;;;;-144.57;100.00;62443.72;5052382;28;20536;-67
2023/04/12 09:01:54;;;;;;;34.85;14.02;;;;;;;-144.57;100.00;62443.72;5052008;28;20568;-61
2023/04/12 09:04:20;;;;;;;27.17;13.45;;;;;;;-144.57;100.00;62443.72;5052823;28;20052;-65
2023/04/12 09:06:45;;;;;;;20.83;11.05;;;;;;;-144.57;100.00;62443.72;5053500;28;20052;-64
2023/04/12 09:09:11;;;;;;;17.88;11.70;;;;;;;-144.57;100.00;62443.72;5052445;28;20534;-63
2023/04/12 09:11:37;;;;;;;23.73;12.65;;;;;;;-144.57;100.00;62443.72;5053721;28;20049;-63
2023/04/12 09:14:02;;;;;;;35.83;13.98;;;;;;;-144.57;100.00;62443.72;5051181;28;20072;-63
2023/04/12 09:16:39;;;;;;;29.58;13.55;;;;;;;-144.57;100.00;62443.72;5052220;28;20403;-63
2023/04/12 09:19:05;;;;;;;22.48;13.05;;;;;;;-144.57;100.00;62443.72;5052510;28;20098;-64
2023/04/12 09:21:33;;;;;;;27.60;13.65;;;;;;;-144.57;100.00;62443.72;5050652;28;20069;-66
2023/04/12 09:24:05;;;;;;;29.02;13.60;;;;;;;-144.57;100.00;62443.72;5052192;28;20059;-64
2023/04/12 09:26:30;;;;;;;29.08;14.50;;;;;;;-144.57;100.00;62443.72;5051088;28;20044;-65
2023/04/12 09:28:56;;;;;;;22.75;14.27;;;;;;;-144.57;100.00;62443.72;5051628;28;20041;-64
2023/04/12 09:31:22;;;;;;;23.83;14.15;;;;;;;-144.57;100.00;62443.72;5053453;28;20568;-65
2023/04/12 09:33:47;;;;;;;21.98;13.57;;;;;;;-144.57;100.00;62443.72;5052332;28;20068;-64
2023/04/12 09:36:15;;;;;;;28.00;13.80;;;;;;;-144.57;100.00;62443.72;5050256;28;20414;-63
2023/04/12 09:38:57;;;;;;;19.80;13.10;;;;;;;-144.57;100.00;62443.72;5052308;28;20068;-68
2023/04/12 09:41:24;;;;;;;19.90;13.27;;;;;;;-144.57;100.00;62443.72;5052110;28;20055;-65
2023/04/12 09:43:50;;;;;;;19.02;11.93;;;;;;;-144.57;100.00;62443.72;5051880;28;20045;-67
2023/04/12 09:46:16;;;;;;;18.75;12.73;;;;;;;-144.57;100.00;62443.72;5070835;28;20051;-65
2023/04/12 09:48:51;;;;;;;21.45;12.23;;;;;;;-144.57;100.00;62443.72;5071498;28;20089;-66
2023/04/12 09:51:27;;;;;;;27.88;12.60;;;;;;;-144.57;100.00;62443.72;5071904;28;20456;-66
2023/04/12 09:53:58;;;;;;;17.95;12.15;;;;;;;-144.57;100.00;62443.72;5072375;28;20047;-65
2023/04/12 09:56:30;;;;;;;19.75;12.00;;;;;;;-144.57;100.00;62443.72;5072535;28;20147;-65
2023/04/12 09:59:02;;;;;;;17.98;12.32;;;;;;;-144.57;100.00;62443.72;5073162;28;20130;-65
2023/04/12 10:01:34;;;;;;;20.00;12.48;;;;;;;-144.57;100.00;62443.72;5072908;28;20421;-63
2023/04/12 10:04:00;;;;;;;24.65;14.93;;;;;;;-144.57;100.00;62443.72;5072272;28;20048;-66
2023/04/12 10:06:26;;;;;;;24.33;14.23;;;;;;;-144.57;100.00;62443.72;5072335;28;20045;-65
2023/04/12 10:08:52;;;;;;;19.92;14.07;;;;;;;-144.57;100.00;62443.72;5071359;28;20033;-66
2023/04/12 10:11:18;;;;;;;22.40;14.48;;;;;;;-144.57;100.00;62443.72;5056042;28;20076;-66
2023/04/12 10:13:44;;;;;;;20.98;13.38;;;;;;;-144.57;100.00;62443.72;5070877;28;20083;-65
2023/04/12 10:16:10;;;;;;;22.67;13.65;;;;;;;-144.57;100.00;62443.72;5070806;28;20056;-66
2023/04/12 10:18:37;;;;;;;23.52;13.65;;;;;;;-144.57;100.00;62443.72;5068292;28;20067;-65
2023/04/12 10:21:03;;;;;;;22.50;12.77;;;;;;;-144.57;100.00;62443.72;5072014;28;20036;-64
2023/04/12 10:23:31;;;;;;;18.75;11.65;;;;;;;-144.57;100.00;62443.72;5070010;28;20063;-64
2023/04/12 10:25:57;;;;;;;22.60;12.07;;;;;;;-144.57;100.00;62443.72;5053663;28;20045;-63
2023/04/12 10:28:24;;;;;;;22.30;13.65;;;;;;;-144.57;100.00;62443.72;5053591;28;20563;-63
2023/04/12 10:30:53;;;;;;;24.00;13.15;;;;;;;-144.57;100.00;62443.72;5071388;28;20036;-64
2023/04/12 10:33:25;;;;;;;22.08;13.45;;;;;;;-144.57;100.00;62443.72;5070005;28;20067;-63
2023/04/12 10:36:02;;;;;;;25.27;13.60;;;;;;;-144.57;100.00;62443.72;5070109;28;20520;-64
2023/04/12 10:38:36;;;;;;;17.77;11.73;;;;;;;-144.57;100.00;62443.72;5070657;28;20045;-63
2023/04/12 10:41:16;;;;;;;23.17;12.60;;;;;;;-144.57;100.00;62443.72;5071476;28;20068;-63
2023/04/12 10:43:50;;;;;;;22.73;13.13;;;;;;;-144.57;100.00;62443.72;5069602;28;20091;-64
2023/04/12 10:46:36;;;;;;;21.02;12.27;;;;;;;-144.57;100.00;62443.72;5071695;28;20438;-62
2023/04/12 10:49:12;;;;;;;14.63;10.73;;;;;;;-144.57;100.00;62443.72;5071056;28;20090;-63
2023/04/12 10:51:39;;;;;;;19.38;11.05;;;;;;;-144.57;100.00;62443.72;5070669;28;20053;-64
2023/04/12 10:54:17;;;;;;;22.20;11.10;;;;;;;-144.57;100.00;62443.72;5070432;28;20071;-62
2023/04/12 10:56:44;;;;;;;14.65;10.70;;;;;;;-144.57;100.00;62443.72;5069601;28;20044;-62
2023/04/12 10:59:49;;;;;;;21.98;12.52;;;;;;;-144.57;100.00;62443.72;5056039;28;20048;-64